sensor_id;sensor_type;location;lat;lon;timestamp;temperature;humidity
73875;HTU21D;62209;47.568;7.558;2023-11-21T00:09:10;9.77;96.22
73875;HTU21D;62209;47.568;7.558;2023-11-21T00:24:18;9.61;97.07
73875;HTU21D;62209;47.568;7.558;2023-11-21T00:39:24;9.46;99.03
73875;HTU21D;62209;47.568;7.558;2023-11-21T00:54:30;9.18;100.75
73875;HTU21D;62209;47.568;7.558;2023-11-21T01:09:37;9.11;100.35
73875;HTU21D;62209;47.568;7.558;2023-11-21T01:24:43;9.01;101.00
73875;HTU21D;62209;47.568;7.558;2023-11-21T01:39:48;9.03;100.50
73875;HTU21D;62209;47.568;7.558;2023-11-21T01:54:54;9.02;100.38
73875;HTU21D;62209;47.568;7.558;2023-11-21T02:10:00;8.93;99.55
73875;HTU21D;62209;47.568;7.558;2023-11-21T02:25:08;8.94;99.69
73875;HTU21D;62209;47.568;7.558;2023-11-21T02:40:14;8.92;99.59
73875;HTU21D;62209;47.568;7.558;2023-11-21T02:55:21;9.02;99.07
73875;HTU21D;62209;47.568;7.558;2023-11-21T03:10:28;8.91;99.58
73875;HTU21D;62209;47.568;7.558;2023-11-21T03:25:33;8.82;100.09
73875;HTU21D;62209;47.568;7.558;2023-11-21T03:40:39;8.73;101.77
73875;HTU21D;62209;47.568;7.558;2023-11-21T09:20:19;10.13;100.16
73875;HTU21D;62209;47.568;7.558;2023-11-21T09:35:26;12.00;95.23
73875;HTU21D;62209;47.568;7.558;2023-11-21T09:50:32;12.50;94.04
73875;HTU21D;62209;47.568;7.558;2023-11-21T10:05:39;12.93;92.62
73875;HTU21D;62209;47.568;7.558;2023-11-21T10:20:47;13.24;91.81
73875;HTU21D;62209;47.568;7.558;2023-11-21T10:35:57;12.34;91.92
73875;HTU21D;62209;47.568;7.558;2023-11-21T10:51:08;12.04;92.94
73875;HTU21D;62209;47.568;7.558;2023-11-21T11:06:14;11.00;93.80
73875;HTU21D;62209;47.568;7.558;2023-11-21T11:21:24;10.94;94.34
73875;HTU21D;62209;47.568;7.558;2023-11-21T11:36:36;10.81;94.32
73875;HTU21D;62209;47.568;7.558;2023-11-21T11:51:48;10.93;96.13
73875;HTU21D;62209;47.568;7.558;2023-11-21T12:07:40;10.87;94.46
73875;HTU21D;62209;47.568;7.558;2023-11-21T12:22:51;10.12;98.21
73875;HTU21D;62209;47.568;7.558;2023-11-21T12:37:57;9.94;104.44
73875;HTU21D;62209;47.568;7.558;2023-11-21T12:53:03;10.06;104.98
73875;HTU21D;62209;47.568;7.558;2023-11-21T13:08:12;10.09;105.65
73875;HTU21D;62209;47.568;7.558;2023-11-21T13:23:23;9.57;106.97
73875;HTU21D;62209;47.568;7.558;2023-11-21T13:38:30;9.76;106.60
73875;HTU21D;62209;47.568;7.558;2023-11-21T13:53:36;9.85;106.40
73875;HTU21D;62209;47.568;7.558;2023-11-21T14:08:45;9.46;107.02
73875;HTU21D;62209;47.568;7.558;2023-11-21T14:23:51;9.71;106.90
73875;HTU21D;62209;47.568;7.558;2023-11-21T14:38:57;9.83;106.10
73875;HTU21D;62209;47.568;7.558;2023-11-21T14:54:04;9.53;107.56
73875;HTU21D;62209;47.568;7.558;2023-11-21T15:09:10;9.59;107.38
73875;HTU21D;62209;47.568;7.558;2023-11-21T15:24:40;9.16;106.94
73875;HTU21D;62209;47.568;7.558;2023-11-21T15:39:49;8.95;107.99
73875;HTU21D;62209;47.568;7.558;2023-11-21T15:54:54;8.60;107.69
73875;HTU21D;62209;47.568;7.558;2023-11-21T16:10:00;8.48;109.51
73875;HTU21D;62209;47.568;7.558;2023-11-21T16:25:08;8.53;109.07
73875;HTU21D;62209;47.568;7.558;2023-11-21T16:40:15;8.34;109.92
73875;HTU21D;62209;47.568;7.558;2023-11-21T16:55:22;8.37;110.50
73875;HTU21D;62209;47.568;7.558;2023-11-21T17:10:28;8.33;110.96
73875;HTU21D;62209;47.568;7.558;2023-11-21T17:25:34;8.35;111.25
73875;HTU21D;62209;47.568;7.558;2023-11-21T17:40:41;8.42;111.10
73875;HTU21D;62209;47.568;7.558;2023-11-21T17:55:48;8.43;111.45
73875;HTU21D;62209;47.568;7.558;2023-11-21T18:10:54;8.37;111.56
73875;HTU21D;62209;47.568;7.558;2023-11-21T18:26:03;8.38;111.42
73875;HTU21D;62209;47.568;7.558;2023-11-21T18:41:09;8.39;111.75
73875;HTU21D;62209;47.568;7.558;2023-11-21T18:56:20;8.32;112.19
73875;HTU21D;62209;47.568;7.558;2023-11-21T19:11:27;8.30;112.42
73875;HTU21D;62209;47.568;7.558;2023-11-21T19:26:33;8.27;112.56
73875;HTU21D;62209;47.568;7.558;2023-11-21T19:41:42;8.22;112.80
73875;HTU21D;62209;47.568;7.558;2023-11-21T19:56:48;8.18;112.24
73875;HTU21D;62209;47.568;7.558;2023-11-21T20:11:54;7.96;112.04
73875;HTU21D;62209;47.568;7.558;2023-11-21T20:27:01;7.98;112.23
73875;HTU21D;62209;47.568;7.558;2023-11-21T20:42:07;8.09;111.72
73875;HTU21D;62209;47.568;7.558;2023-11-21T20:57:14;8.07;110.97
73875;HTU21D;62209;47.568;7.558;2023-11-21T21:12:20;8.11;111.36
73875;HTU21D;62209;47.568;7.558;2023-11-21T21:27:26;8.15;111.51
73875;HTU21D;62209;47.568;7.558;2023-11-21T21:42:31;8.14;111.47
73875;HTU21D;62209;47.568;7.558;2023-11-21T21:57:37;8.11;111.14
73875;HTU21D;62209;47.568;7.558;2023-11-21T22:12:43;8.05;110.78
73875;HTU21D;62209;47.568;7.558;2023-11-21T22:27:48;8.04;110.63
73875;HTU21D;62209;47.568;7.558;2023-11-21T22:42:55;8.00;110.52
73875;HTU21D;62209;47.568;7.558;2023-11-21T22:58:01;7.98;110.72
73875;HTU21D;62209;47.568;7.558;2023-11-21T23:13:06;7.91;110.77
73875;HTU21D;62209;47.568;7.558;2023-11-21T23:28:12;7.90;110.92
73875;HTU21D;62209;47.568;7.558;2023-11-21T23:43:18;7.86;111.07
73875;HTU21D;62209;47.568;7.558;2023-11-21T23:58:24;7.86;111.23
